Denison, IA

2:17 AM CDT on May 29, 2015 (GMT -0500)
Ridge Road Area | | Change Station
CLOSE
Current Station
Personal Weather Station
Location: Denison, IA
Elevation: 1358 ft
Nearby Weather Stations

Elev 1358 ft 42.03 °N, 95.34 °W | Updated 4 minutes ago

Scattered Clouds
Scattered Clouds
64.4 °F
Feels Like 64.4 °F
N
8.3
Wind Variable Wind from SSE

Today
High -- | Low -- °F
--% Chance of Precip.
Yesterday
High -- | Low -- °F
Precip. -- in
5:49 AM 8:48 PM
Waxing Gibbous, 81% visible
Pressure 29.90 in
Visibility 10.0 miles
Clouds Scattered Clouds 3300 ft
Scattered Clouds 8500 ft
Dew Point 64 °F
Humidity 99%
Rainfall 0.00 in
Snow Depth Not available.
UV 0 out of 12
Pollen 7.10 out of 12
Air Quality Not available.
Flu Activity Sporadic
METAR KDNS 290655Z AUTO 17012G21KT 10SM SCT033 SCT085 19/19 A2990 RMK AO2

More Conditions Fewer Conditions

Pressure 29.90 in
Visibility 10.0 miles
Clouds Scattered Clouds 3300 ft
Scattered Clouds 8500 ft
Dew Point 64 °F
Humidity 99%
Rainfall 0.00 in
Snow Depth Not available.
UV 0 out of 12
Pollen 7.10 out of 12
Air Quality Not available.
Flu Activity Sporadic
METAR KDNS 290655Z AUTO 17012G21KT 10SM SCT033 SCT085 19/19 A2990 RMK AO2

More Conditions Fewer Conditions

10-Day Weather Forecast

Almanac

Astronomy

May. 29, 2015 Rise Set
Actual Time
Civil Twilight
Nautical Twilight
Astronomical Twilight
Moon
Length of Visible Light
Length of Day
Tomorrow will be .
, % of the Moon is Illuminated

Today's Extremes

State Highs State Lows

Community

WunderPhotos

Upload Photos

1,825,215 photos uploaded!

WunderBlogs® & News

Nearby

Air Quality

  Air Quality AQ Index Pollutant
Not available.

Snow Depth

Station Depth Elevation

Earthquake Activity

City Distance Mag. Time & Date
Minimum magnitude displayed is 2.5.

Coastal Water Temperatures

Place Temperature

Stations

Nearby Weather Stations

Station Location Temp. Windchill Dew Point Humidity Wind Precip. Elev Updated Type